createdAt,value
2022-11-07T00:00:47.484Z,76.73
2022-11-07T00:03:16.855Z,77.69
2022-11-07T00:05:43.669Z,76.86
2022-11-07T00:08:10.202Z,77.04
2022-11-07T00:10:59.485Z,76.13
2022-11-07T00:13:27.433Z,75.71
2022-11-07T00:15:57.984Z,74.90
2022-11-07T00:18:24.560Z,74.56
2022-11-07T00:24:19.544Z,74.89
2022-11-07T00:26:47.110Z,74.96
2022-11-07T00:29:19.144Z,74.76
2022-11-07T00:31:46.416Z,74.15
2022-11-07T00:34:13.209Z,74.00
2022-11-07T00:36:39.929Z,74.14
2022-11-07T00:39:25.358Z,73.78
2022-11-07T00:41:51.944Z,73.90
2022-11-07T00:44:18.602Z,73.47
2022-11-07T00:46:45.219Z,73.23
2022-11-07T00:53:04.781Z,72.80
2022-11-07T00:56:00.191Z,72.84
2022-11-07T00:58:26.779Z,73.04
2022-11-07T01:00:53.339Z,72.67
2022-11-07T01:03:38.750Z,72.46
2022-11-07T01:06:05.598Z,73.16
2022-11-07T01:24:52.578Z,73.05
2022-11-07T01:27:19.159Z,72.68
2022-11-07T01:29:45.757Z,72.74
2022-11-07T01:32:12.352Z,72.85
2022-11-07T01:34:38.911Z,72.87
2022-11-07T01:37:05.471Z,72.72
2022-11-07T01:39:47.394Z,72.40
2022-11-07T01:42:13.931Z,72.42
2022-11-07T01:44:40.472Z,72.30
2022-11-07T01:47:07.952Z,72.85
2022-11-07T01:53:02.419Z,72.69
2022-11-07T01:55:35.494Z,72.53
2022-11-07T01:58:05.704Z,72.96
2022-11-07T02:00:34.060Z,72.94
2022-11-07T02:03:21.093Z,72.59
2022-11-07T02:06:11.471Z,72.47
2022-11-07T02:09:06.628Z,72.25
2022-11-07T02:11:35.127Z,72.49
2022-11-07T02:14:01.776Z,72.89
2022-11-07T02:16:29.047Z,72.62
2022-11-07T02:22:25.387Z,72.52
2022-11-07T02:24:57.055Z,72.82
2022-11-07T02:27:25.894Z,72.61
2022-11-07T02:30:00.658Z,72.40
2022-11-07T02:32:27.447Z,72.53
2022-11-07T02:35:02.117Z,72.52
2022-11-07T02:37:40.600Z,72.58
2022-11-07T02:40:10.004Z,72.58
2022-11-07T02:42:45.006Z,72.46
2022-11-07T02:45:27.979Z,72.27
2022-11-07T02:48:19.355Z,72.19
2022-11-07T02:50:59.327Z,72.32
2022-11-07T02:53:42.153Z,72.37
2022-11-07T02:56:09.062Z,72.11
2022-11-07T02:58:36.316Z,72.29
2022-11-07T03:01:07.093Z,72.40
2022-11-07T03:03:42.278Z,72.34
2022-11-07T03:09:04.602Z,72.16
2022-11-07T03:17:29.419Z,72.65
2022-11-07T03:19:55.950Z,73.04
2022-11-07T03:23:06.210Z,74.19
2022-11-07T03:26:10.374Z,75.35
2022-11-07T03:37:17.484Z,73.78
2022-11-07T03:39:44.077Z,73.56
2022-11-07T03:47:21.089Z,74.11
2022-11-07T03:49:47.651Z,73.39
2022-11-07T03:53:03.758Z,73.07
2022-11-07T03:56:05.752Z,72.82
2022-11-07T03:58:32.309Z,73.15
2022-11-07T04:00:58.872Z,73.03
2022-11-07T04:03:25.513Z,73.97
2022-11-07T04:41:21.800Z,73.48
2022-11-07T04:43:48.898Z,73.50
2022-11-07T04:46:16.697Z,74.43
2022-11-07T04:51:24.615Z,73.95
2022-11-07T04:53:51.348Z,73.43
2022-11-07T04:56:39.889Z,73.29
2022-11-07T04:59:06.764Z,73.37
2022-11-07T05:01:33.407Z,73.17
2022-11-07T05:04:00.154Z,72.81
2022-11-07T05:13:24.495Z,72.81
2022-11-07T05:15:52.387Z,72.69
2022-11-07T05:18:21.189Z,72.64
2022-11-07T05:20:47.759Z,72.92
2022-11-07T05:23:20.659Z,72.93
2022-11-07T05:26:11.976Z,73.47
2022-11-07T05:28:39.795Z,73.07
2022-11-07T05:31:18.175Z,72.78
2022-11-07T05:45:00.623Z,73.64
2022-11-07T05:50:15.758Z,73.42
2022-11-07T05:52:42.684Z,73.74
2022-11-07T06:03:01.979Z,74.27
2022-11-07T06:05:29.289Z,73.80
2022-11-07T06:07:56.060Z,73.91
2022-11-07T06:10:23.061Z,73.66
2022-11-07T06:13:00.606Z,73.44
2022-11-07T06:15:29.206Z,73.76
2022-11-07T06:18:00.292Z,74.69
2022-11-07T06:20:27.529Z,76.03
2022-11-07T06:22:58.518Z,76.76
2022-11-07T06:31:06.720Z,74.69
2022-11-07T06:33:33.464Z,73.80
2022-11-07T06:36:11.453Z,73.56
2022-11-07T06:38:39.099Z,73.78
2022-11-07T06:41:12.528Z,73.95
2022-11-07T06:43:39.452Z,73.48
2022-11-07T06:46:10.547Z,72.89
2022-11-07T06:48:37.948Z,72.80
2022-11-07T06:51:06.677Z,73.20
2022-11-07T06:53:44.015Z,72.84
2022-11-07T06:56:19.437Z,72.97
2022-11-07T06:58:48.956Z,73.53
2022-11-07T07:01:16.855Z,73.47
2022-11-07T07:03:45.115Z,73.26
2022-11-07T07:06:16.766Z,72.99
2022-11-07T07:08:44.489Z,72.61
2022-11-07T07:11:13.956Z,72.72
2022-11-07T07:18:51.065Z,72.61
2022-11-07T07:21:17.659Z,72.37
2022-11-07T07:23:44.234Z,72.09
2022-11-07T07:26:15.560Z,71.77
2022-11-07T07:28:46.889Z,71.82
2022-11-07T07:31:13.357Z,72.15
2022-11-07T07:33:44.938Z,72.76
2022-11-07T07:36:16.477Z,72.33
2022-11-07T07:38:46.028Z,71.50
2022-11-07T07:41:27.847Z,71.58
2022-11-07T07:43:54.514Z,71.64
2022-11-07T07:46:23.554Z,71.44
2022-11-07T07:48:50.114Z,71.35
2022-11-07T07:51:38.945Z,71.48
2022-11-07T07:54:05.542Z,71.91
2022-11-07T07:56:32.521Z,71.33
2022-11-07T07:58:59.990Z,70.68
2022-11-07T08:01:26.624Z,70.49
2022-11-07T08:04:02.366Z,71.01
2022-11-07T08:10:44.188Z,70.72
2022-11-07T08:13:10.857Z,70.73
2022-11-07T08:15:37.684Z,70.87
2022-11-07T08:18:04.926Z,70.65
2022-11-07T08:20:32.062Z,70.44
2022-11-07T08:23:16.422Z,70.16
2022-11-07T08:25:51.422Z,69.80
2022-11-07T08:28:18.836Z,69.96
2022-11-07T08:39:18.667Z,69.92
2022-11-07T08:44:26.742Z,69.63
2022-11-07T09:08:06.727Z,69.15
2022-11-07T09:10:34.903Z,68.76
2022-11-07T09:13:01.531Z,68.57
2022-11-07T09:47:22.591Z,67.10
2022-11-07T09:50:14.961Z,67.01
2022-11-07T11:04:38.428Z,66.04
2022-11-07T11:07:11.550Z,66.54
2022-11-07T11:12:14.600Z,66.94
2022-11-07T11:17:34.939Z,66.61
2022-11-07T11:20:01.962Z,67.00
2022-11-07T11:22:29.281Z,66.31
2022-11-07T11:25:11.107Z,66.45
2022-11-07T11:27:51.390Z,66.60
2022-11-07T11:33:14.443Z,66.27
2022-11-07T11:35:56.058Z,66.28
2022-11-07T11:38:33.183Z,66.15
2022-11-07T11:41:10.698Z,66.24
2022-11-07T11:43:59.840Z,66.08
2022-11-07T11:46:45.583Z,66.46
2022-11-07T11:51:56.009Z,66.18
2022-11-07T11:54:22.700Z,66.21
2022-11-07T11:57:23.710Z,66.68
2022-11-07T11:59:50.268Z,66.74
2022-11-07T12:02:22.482Z,66.55
2022-11-07T12:05:19.493Z,66.62
2022-11-07T12:07:57.782Z,66.94
2022-11-07T12:10:52.295Z,67.21
2022-11-07T12:13:28.265Z,67.21
2022-11-07T12:16:07.172Z,66.86
2022-11-07T12:19:15.943Z,67.63
2022-11-07T12:21:48.757Z,67.29
2022-11-07T12:27:03.241Z,65.60
2022-11-07T12:29:47.304Z,65.30
2022-11-07T12:32:19.791Z,65.39
2022-11-07T12:35:07.581Z,64.91
2022-11-07T12:37:58.216Z,64.58
2022-11-07T12:40:27.538Z,64.96
2022-11-07T12:46:13.811Z,66.03
2022-11-07T12:49:01.785Z,64.53
2022-11-07T12:51:45.599Z,63.43
2022-11-07T12:54:21.047Z,62.34
2022-11-07T12:56:49.494Z,62.59
2022-11-07T12:59:23.902Z,63.63
2022-11-07T13:02:15.978Z,62.58
2022-11-07T13:05:18.528Z,62.18
2022-11-07T13:08:00.727Z,62.23
2022-11-07T13:29:02.383Z,61.81
2022-11-07T13:31:40.497Z,62.97
2022-11-07T13:34:18.876Z,62.83
2022-11-07T13:36:50.767Z,62.50
2022-11-07T13:39:18.550Z,62.57
2022-11-07T13:41:46.388Z,62.70
2022-11-07T13:44:22.748Z,62.38
2022-11-07T13:47:17.716Z,62.43
2022-11-07T13:49:47.766Z,61.83
2022-11-07T13:52:26.823Z,60.48
2022-11-07T13:55:21.972Z,60.88
2022-11-07T13:57:54.807Z,62.22
2022-11-07T14:00:22.006Z,61.74
2022-11-07T14:02:54.491Z,60.91
2022-11-07T14:05:24.014Z,61.05
2022-11-07T14:08:02.437Z,61.60
2022-11-07T14:10:47.158Z,62.10
2022-11-07T14:13:25.218Z,63.01
2022-11-07T14:16:25.139Z,63.08
2022-11-07T14:18:57.043Z,63.90
2022-11-07T14:21:27.596Z,63.77
2022-11-07T14:23:54.542Z,63.73
2022-11-07T14:26:30.663Z,63.28
2022-11-07T14:29:00.654Z,63.64
2022-11-07T14:31:30.375Z,63.47
2022-11-07T14:34:00.406Z,63.40
2022-11-07T14:36:28.362Z,63.55
2022-11-07T14:39:11.294Z,64.06
2022-11-07T14:41:43.203Z,64.08
2022-11-07T14:44:17.354Z,64.23
2022-11-07T14:46:44.686Z,64.63
2022-11-07T14:49:39.593Z,64.69
2022-11-07T14:52:08.984Z,64.91
2022-11-07T14:54:41.940Z,65.38
2022-11-07T14:57:11.585Z,65.39
2022-11-07T14:59:39.057Z,65.77
2022-11-07T15:02:11.781Z,66.12
2022-11-07T15:04:42.411Z,66.22
2022-11-07T15:07:20.386Z,67.08
2022-11-07T15:09:46.943Z,67.43
2022-11-07T15:12:25.943Z,67.64
2022-11-07T15:15:17.231Z,67.30
2022-11-07T15:17:48.819Z,67.79
2022-11-07T15:20:37.047Z,68.21
2022-11-07T15:23:12.635Z,68.81
2022-11-07T15:25:41.811Z,68.63
2022-11-07T15:28:43.289Z,68.62
2022-11-07T15:31:26.078Z,68.75
2022-11-07T15:33:53.707Z,70.24
2022-11-07T15:36:20.968Z,70.67
2022-11-07T15:38:49.188Z,70.51
2022-11-07T15:41:16.154Z,70.27
2022-11-07T15:43:42.679Z,70.97
2022-11-07T15:46:31.042Z,70.82
2022-11-07T15:48:57.785Z,71.53
2022-11-07T15:51:24.495Z,72.05
2022-11-07T15:53:51.090Z,71.53
2022-11-07T15:56:22.109Z,71.30
2022-11-07T15:58:49.606Z,71.50
2022-11-07T16:01:16.204Z,71.18
2022-11-07T16:03:45.988Z,71.09
2022-11-07T16:06:45.967Z,70.91
2022-11-07T16:09:20.539Z,71.29
2022-11-07T16:11:47.643Z,71.01
2022-11-07T16:17:05.405Z,70.93
2022-11-07T16:19:32.015Z,71.03
2022-11-07T16:21:58.526Z,70.93
2022-11-07T16:24:25.084Z,70.77
2022-11-07T16:26:51.994Z,70.57
2022-11-07T16:29:18.575Z,70.58
2022-11-07T16:31:45.117Z,70.70
2022-11-07T16:34:15.447Z,71.70
2022-11-07T16:36:42.186Z,71.65
2022-11-07T16:39:19.420Z,71.63
2022-11-07T16:41:46.155Z,71.42
2022-11-07T16:44:12.732Z,71.27
2022-11-07T16:46:41.312Z,71.45
2022-11-07T16:49:25.681Z,71.66
2022-11-07T16:51:52.244Z,72.29
2022-11-07T16:54:18.803Z,71.97
2022-11-07T16:56:47.318Z,72.55
2022-11-07T16:59:19.380Z,72.35
2022-11-07T17:01:46.236Z,72.74
2022-11-07T17:04:13.044Z,71.86
2022-11-07T17:06:46.283Z,72.18
2022-11-07T17:09:17.236Z,72.34
2022-11-07T17:11:45.125Z,71.96
2022-11-07T17:14:12.122Z,71.93
2022-11-07T17:16:42.113Z,72.60
2022-11-07T17:19:12.251Z,72.67
2022-11-07T17:21:43.824Z,72.92
2022-11-07T17:24:10.595Z,73.40
2022-11-07T17:26:38.861Z,73.34
2022-11-07T17:29:07.326Z,73.17
2022-11-07T17:31:34.126Z,73.44
2022-11-07T17:34:01.010Z,73.40
2022-11-07T17:36:36.687Z,73.65
2022-11-07T17:39:11.482Z,73.85
2022-11-07T17:41:40.676Z,74.22
2022-11-07T17:44:07.767Z,74.74
2022-11-07T17:46:35.961Z,74.72
2022-11-07T17:49:07.112Z,75.24
2022-11-07T17:51:36.017Z,76.04
2022-11-07T17:54:03.132Z,74.86
2022-11-07T17:56:31.011Z,76.59
2022-11-07T17:59:00.046Z,76.66
2022-11-07T18:01:30.683Z,76.49
2022-11-07T18:03:58.059Z,76.86
2022-11-07T18:06:26.175Z,76.82
2022-11-07T18:08:55.509Z,75.91
2022-11-07T18:11:25.900Z,76.32
2022-11-07T18:13:56.094Z,76.09
2022-11-07T18:16:27.852Z,75.20
2022-11-07T18:18:55.255Z,74.83
2022-11-07T18:21:21.817Z,74.91
2022-11-07T18:23:48.470Z,75.13
2022-11-07T18:26:20.837Z,75.49
2022-11-07T18:28:51.522Z,76.00
2022-11-07T18:31:20.958Z,76.20
2022-11-07T18:33:48.345Z,76.54
2022-11-07T18:36:18.040Z,76.78
2022-11-07T18:38:45.109Z,76.18
2022-11-07T18:41:16.024Z,76.44
2022-11-07T18:43:42.621Z,75.88
2022-11-07T18:46:14.510Z,75.89
2022-11-07T18:48:42.219Z,76.34
2022-11-07T18:51:16.387Z,76.43
2022-11-07T18:53:44.084Z,77.05
2022-11-07T18:56:12.691Z,77.50
2022-11-07T18:58:41.341Z,77.20
2022-11-07T19:01:13.916Z,77.52
2022-11-07T19:03:42.057Z,77.45
2022-11-07T19:06:11.582Z,77.61
2022-11-07T19:08:40.443Z,77.49
2022-11-07T19:11:11.136Z,77.43
2022-11-07T19:13:39.814Z,77.58
2022-11-07T19:16:08.535Z,77.94
2022-11-07T19:18:35.546Z,77.68
2022-11-07T19:21:03.883Z,76.86
2022-11-07T19:23:30.935Z,76.65
2022-11-07T19:25:57.888Z,76.25
2022-11-07T19:28:24.448Z,75.25
2022-11-07T19:30:51.025Z,74.49
2022-11-07T19:33:17.989Z,74.16
2022-11-07T19:35:44.750Z,73.81
2022-11-07T19:38:12.943Z,73.55
2022-11-07T19:40:41.269Z,74.19
2022-11-07T19:43:09.470Z,74.59
2022-11-07T19:45:40.962Z,75.47
2022-11-07T19:48:07.710Z,75.50
2022-11-07T19:50:34.248Z,74.83
2022-11-07T19:53:00.747Z,75.11
2022-11-07T19:55:27.447Z,74.91
2022-11-07T19:57:53.996Z,74.94
2022-11-07T20:00:20.558Z,74.78
2022-11-07T20:02:47.906Z,75.11
2022-11-07T20:05:23.936Z,75.34
2022-11-07T20:07:58.062Z,75.70
2022-11-07T20:10:27.818Z,75.80
2022-11-07T20:12:55.664Z,75.09
2022-11-07T20:15:22.461Z,75.23
2022-11-07T20:17:49.026Z,75.33
2022-11-07T20:20:15.960Z,75.23
2022-11-07T20:22:47.531Z,75.05
2022-11-07T20:28:04.566Z,75.25
2022-11-07T20:30:31.121Z,74.48
2022-11-07T20:32:58.191Z,74.31
2022-11-07T20:35:24.799Z,74.76
2022-11-07T20:37:51.363Z,76.30
2022-11-07T20:41:20.281Z,75.71
2022-11-07T20:46:49.380Z,75.44
2022-11-07T20:49:38.919Z,75.00
2022-11-07T20:57:53.390Z,73.69
2022-11-07T21:00:21.534Z,73.50
2022-11-07T21:06:12.500Z,74.68
2022-11-07T21:08:48.720Z,76.28
2022-11-07T21:11:24.122Z,76.45
2022-11-07T21:14:12.642Z,75.46
2022-11-07T21:19:21.084Z,75.73
2022-11-07T21:22:16.254Z,75.70
2022-11-07T21:28:03.679Z,75.55
2022-11-07T21:30:40.787Z,74.83
2022-11-07T21:38:46.646Z,75.21
2022-11-07T21:41:26.720Z,74.83
2022-11-07T21:46:34.891Z,74.72
2022-11-07T21:49:01.909Z,74.75
2022-11-07T21:51:36.485Z,75.20
2022-11-07T21:54:44.637Z,75.23
2022-11-07T21:58:05.597Z,75.12
2022-11-07T22:00:36.304Z,75.13
2022-11-07T22:03:04.187Z,75.50
2022-11-07T22:05:30.925Z,75.51
2022-11-07T22:08:02.125Z,75.00
2022-11-07T22:10:28.646Z,74.54
2022-11-07T22:13:19.663Z,75.78
2022-11-07T22:16:09.175Z,75.50
2022-11-07T22:18:35.820Z,75.47
2022-11-07T22:21:05.242Z,74.82
2022-11-07T22:24:18.656Z,74.53
2022-11-07T22:27:31.893Z,74.60
2022-11-07T22:29:58.445Z,74.32
2022-11-07T22:32:24.962Z,74.16
2022-11-07T22:34:51.487Z,74.09
2022-11-07T22:37:18.026Z,74.20
2022-11-07T22:39:44.892Z,74.26
2022-11-07T22:42:11.509Z,74.00
2022-11-07T22:44:38.047Z,74.42
2022-11-07T22:47:04.624Z,74.36
2022-11-07T22:49:31.183Z,74.18
2022-11-07T22:51:57.989Z,74.03
2022-11-07T22:54:24.554Z,73.97
2022-11-07T22:56:51.080Z,74.14
2022-11-07T22:59:17.607Z,74.21
2022-11-07T23:01:44.396Z,73.97
2022-11-07T23:04:15.027Z,73.80
2022-11-07T23:06:42.307Z,73.72
2022-11-07T23:09:11.259Z,73.74
2022-11-07T23:11:45.827Z,74.07
2022-11-07T23:16:56.105Z,74.08
2022-11-07T23:19:25.005Z,74.01
2022-11-07T23:21:52.884Z,73.97
2022-11-07T23:24:20.676Z,74.41
2022-11-07T23:26:47.923Z,74.12
2022-11-07T23:29:38.839Z,74.23
2022-11-07T23:48:58.541Z,73.53
2022-11-07T23:51:25.662Z,73.89
2022-11-07T23:54:10.447Z,73.75
2022-11-07T23:56:37.270Z,73.48
2022-11-07T23:59:22.838Z,73.62
